Decoded Metar for KDSF ( in ) (IATA:) | Meteo·Mobile Aviation Weather
aviador You're here:

KDSF Decoded Metar

in
Report Time2019-03-21 15:15:00
UTC Time2019-03-21 15:34:07
Flight Rules vfr VFR
WindVRB at 05 Gusting to 14 kt
Visibility9999 m
Phenomena:N/A
Clouds:N/A
Expected CloudBase > 3,600 ft AGL from Temp-Dew spread
CeilingNone
Temp19°C
Dew Point10°C (56% RH)
AAT17.3°C
QNH1021 hPa
Raw Report
KDSF 211515Z AUTO VRB05G14KT 9SM CLR 19/10 A3015 RMK A01=

Extra information for KDSF:More info

Social comments